< < Back
Terminal Aerodrome Forecast


Current Version              Previous Versions:   1  2  3  4  5  6  7  8  9  

Terminal Aerodrome Forecast

321
FTUS44 KHUN 292331
TAFHSV
TAF
KHSV 292331Z 3000/3024 VRB03KT P6SM BKN250
     FM301600 24007KT P6SM SCT030=

Latest METAR

653
SAUS80 KWBC 301300 RRA
MTRHSV
METAR KHSV 301253Z 00000KT 10SM SCT016 BKN050 25/20 A3004 RMK AO2 SLP164
T02500200


USA.gov is the U.S. government's official web portal to all federal, state and local government web resources and services.